sensor_id;sensor_type;location;lat;lon;timestamp;temperature;humidity
31809;DHT22;18379;48.208;-1.518;2023-03-01T00:05:24;1.00;99.90
31809;DHT22;18379;48.208;-1.518;2023-03-01T00:10:25;0.90;99.90
31809;DHT22;18379;48.208;-1.518;2023-03-01T00:15:26;0.90;99.90
31809;DHT22;18379;48.208;-1.518;2023-03-01T00:20:27;0.80;99.90
31809;DHT22;18379;48.208;-1.518;2023-03-01T00:25:28;0.80;99.90
31809;DHT22;18379;48.208;-1.518;2023-03-01T00:30:29;0.70;99.90
31809;DHT22;18379;48.208;-1.518;2023-03-01T00:35:31;0.70;99.90
31809;DHT22;18379;48.208;-1.518;2023-03-01T00:40:34;0.70;99.90
31809;DHT22;18379;48.208;-1.518;2023-03-01T00:45:35;0.60;99.90
31809;DHT22;18379;48.208;-1.518;2023-03-01T00:50:36;0.60;99.90
31809;DHT22;18379;48.208;-1.518;2023-03-01T00:55:37;0.60;99.90
31809;DHT22;18379;48.208;-1.518;2023-03-01T01:00:37;0.50;99.90
31809;DHT22;18379;48.208;-1.518;2023-03-01T01:05:38;0.50;99.90
31809;DHT22;18379;48.208;-1.518;2023-03-01T01:10:39;0.40;99.90
31809;DHT22;18379;48.208;-1.518;2023-03-01T01:15:40;0.30;99.90
31809;DHT22;18379;48.208;-1.518;2023-03-01T01:20:41;0.20;99.90
31809;DHT22;18379;48.208;-1.518;2023-03-01T01:25:41;0.20;99.90
31809;DHT22;18379;48.208;-1.518;2023-03-01T01:30:42;0.10;99.90
31809;DHT22;18379;48.208;-1.518;2023-03-01T01:35:45;0.20;99.90
31809;DHT22;18379;48.208;-1.518;2023-03-01T01:40:46;0.20;99.90
31809;DHT22;18379;48.208;-1.518;2023-03-01T01:45:48;0.10;99.90
31809;DHT22;18379;48.208;-1.518;2023-03-01T01:50:59;0.10;99.90
31809;DHT22;18379;48.208;-1.518;2023-03-01T01:56:13;0.10;99.90
31809;DHT22;18379;48.208;-1.518;2023-03-01T02:01:17;0.10;99.90
31809;DHT22;18379;48.208;-1.518;2023-03-01T02:06:20;0.10;99.90
31809;DHT22;18379;48.208;-1.518;2023-03-01T02:11:22;0.10;99.90
31809;DHT22;18379;48.208;-1.518;2023-03-01T02:16:23;0.00;99.90
31809;DHT22;18379;48.208;-1.518;2023-03-01T02:21:35;0.00;99.90
31809;DHT22;18379;48.208;-1.518;2023-03-01T02:26:46;0.00;99.90
31809;DHT22;18379;48.208;-1.518;2023-03-01T02:31:50;0.00;99.90
31809;DHT22;18379;48.208;-1.518;2023-03-01T02:36:56;-0.10;99.90
31809;DHT22;18379;48.208;-1.518;2023-03-01T02:41:57;0.00;99.90
31809;DHT22;18379;48.208;-1.518;2023-03-01T02:47:02;-0.10;99.90
31809;DHT22;18379;48.208;-1.518;2023-03-01T02:57:40;-0.10;99.90
31809;DHT22;18379;48.208;-1.518;2023-03-01T03:02:42;-0.20;99.90
31809;DHT22;18379;48.208;-1.518;2023-03-01T03:07:44;-0.20;99.90
31809;DHT22;18379;48.208;-1.518;2023-03-01T03:12:59;-0.30;99.90
31809;DHT22;18379;48.208;-1.518;2023-03-01T03:18:05;-0.30;99.90
31809;DHT22;18379;48.208;-1.518;2023-03-01T03:23:06;-0.30;99.90
31809;DHT22;18379;48.208;-1.518;2023-03-01T03:28:07;-0.30;99.90
31809;DHT22;18379;48.208;-1.518;2023-03-01T03:33:11;-0.30;99.90
31809;DHT22;18379;48.208;-1.518;2023-03-01T03:38:14;-0.40;99.90
31809;DHT22;18379;48.208;-1.518;2023-03-01T03:43:21;-0.40;99.90
31809;DHT22;18379;48.208;-1.518;2023-03-01T03:48:23;-0.40;99.90
31809;DHT22;18379;48.208;-1.518;2023-03-01T03:53:26;-0.40;99.90
31809;DHT22;18379;48.208;-1.518;2023-03-01T03:58:27;-0.40;99.90
31809;DHT22;18379;48.208;-1.518;2023-03-01T04:03:29;-0.40;99.90
31809;DHT22;18379;48.208;-1.518;2023-03-01T04:08:30;-0.40;99.90
31809;DHT22;18379;48.208;-1.518;2023-03-01T04:13:31;-0.40;99.90
31809;DHT22;18379;48.208;-1.518;2023-03-01T04:18:32;-0.50;99.90
31809;DHT22;18379;48.208;-1.518;2023-03-01T04:23:33;-0.50;99.90
31809;DHT22;18379;48.208;-1.518;2023-03-01T04:28:39;-0.60;99.90
31809;DHT22;18379;48.208;-1.518;2023-03-01T04:33:47;-0.70;99.90
31809;DHT22;18379;48.208;-1.518;2023-03-01T04:38:48;-0.70;99.90
31809;DHT22;18379;48.208;-1.518;2023-03-01T04:43:49;-0.70;99.90
31809;DHT22;18379;48.208;-1.518;2023-03-01T04:48:50;-0.70;99.90
31809;DHT22;18379;48.208;-1.518;2023-03-01T04:53:51;-0.70;99.90
31809;DHT22;18379;48.208;-1.518;2023-03-01T04:58:54;-0.70;99.90
31809;DHT22;18379;48.208;-1.518;2023-03-01T05:03:55;-0.70;99.90
31809;DHT22;18379;48.208;-1.518;2023-03-01T05:08:56;-0.70;99.90
31809;DHT22;18379;48.208;-1.518;2023-03-01T05:13:56;-0.70;99.90
31809;DHT22;18379;48.208;-1.518;2023-03-01T05:18:58;-0.70;99.90
31809;DHT22;18379;48.208;-1.518;2023-03-01T05:23:58;-0.70;99.90
31809;DHT22;18379;48.208;-1.518;2023-03-01T05:28:59;-0.80;99.90
31809;DHT22;18379;48.208;-1.518;2023-03-01T05:34:01;-0.80;99.90
31809;DHT22;18379;48.208;-1.518;2023-03-01T05:39:02;-0.80;99.90
31809;DHT22;18379;48.208;-1.518;2023-03-01T05:44:06;-0.80;99.90
31809;DHT22;18379;48.208;-1.518;2023-03-01T05:49:07;-0.80;99.90
31809;DHT22;18379;48.208;-1.518;2023-03-01T05:54:11;-0.80;99.90
31809;DHT22;18379;48.208;-1.518;2023-03-01T05:59:12;-0.80;99.90
31809;DHT22;18379;48.208;-1.518;2023-03-01T06:04:14;-0.80;99.90
31809;DHT22;18379;48.208;-1.518;2023-03-01T06:09:14;-0.70;99.90
31809;DHT22;18379;48.208;-1.518;2023-03-01T06:14:16;-0.80;99.90
31809;DHT22;18379;48.208;-1.518;2023-03-01T06:19:16;-0.80;99.90
31809;DHT22;18379;48.208;-1.518;2023-03-01T06:24:17;-0.90;99.90
31809;DHT22;18379;48.208;-1.518;2023-03-01T06:29:18;-1.00;99.90
31809;DHT22;18379;48.208;-1.518;2023-03-01T06:34:19;-1.00;99.90
31809;DHT22;18379;48.208;-1.518;2023-03-01T06:39:19;-1.00;99.90
31809;DHT22;18379;48.208;-1.518;2023-03-01T06:44:20;-1.00;99.90
31809;DHT22;18379;48.208;-1.518;2023-03-01T06:49:23;-1.10;99.90
31809;DHT22;18379;48.208;-1.518;2023-03-01T06:54:24;-1.10;99.90
31809;DHT22;18379;48.208;-1.518;2023-03-01T06:59:25;-1.10;99.90
31809;DHT22;18379;48.208;-1.518;2023-03-01T07:04:26;-1.00;99.90
31809;DHT22;18379;48.208;-1.518;2023-03-01T07:09:29;-1.00;99.90
31809;DHT22;18379;48.208;-1.518;2023-03-01T07:14:29;-1.00;99.90
31809;DHT22;18379;48.208;-1.518;2023-03-01T07:19:30;-0.90;99.90
31809;DHT22;18379;48.208;-1.518;2023-03-01T07:24:31;-0.90;99.90
31809;DHT22;18379;48.208;-1.518;2023-03-01T07:29:32;-0.80;99.90
31809;DHT22;18379;48.208;-1.518;2023-03-01T07:34:33;-0.80;99.90
31809;DHT22;18379;48.208;-1.518;2023-03-01T07:39:34;-0.70;99.90
31809;DHT22;18379;48.208;-1.518;2023-03-01T07:44:35;-0.70;99.90
31809;DHT22;18379;48.208;-1.518;2023-03-01T07:49:36;-0.60;99.90
31809;DHT22;18379;48.208;-1.518;2023-03-01T07:54:38;-0.50;99.90
31809;DHT22;18379;48.208;-1.518;2023-03-01T07:59:39;-0.50;99.90
31809;DHT22;18379;48.208;-1.518;2023-03-01T08:04:42;-0.40;99.90
31809;DHT22;18379;48.208;-1.518;2023-03-01T08:09:45;-0.30;99.90
31809;DHT22;18379;48.208;-1.518;2023-03-01T08:14:47;-0.10;99.90
31809;DHT22;18379;48.208;-1.518;2023-03-01T08:19:48;0.00;99.90
31809;DHT22;18379;48.208;-1.518;2023-03-01T08:24:48;0.20;99.90
31809;DHT22;18379;48.208;-1.518;2023-03-01T08:29:49;0.30;99.90
31809;DHT22;18379;48.208;-1.518;2023-03-01T08:34:55;0.40;99.90
31809;DHT22;18379;48.208;-1.518;2023-03-01T08:39:57;0.60;99.90
31809;DHT22;18379;48.208;-1.518;2023-03-01T08:45:02;0.70;99.90
31809;DHT22;18379;48.208;-1.518;2023-03-01T08:50:03;0.90;99.90
31809;DHT22;18379;48.208;-1.518;2023-03-01T08:55:05;1.00;99.90
31809;DHT22;18379;48.208;-1.518;2023-03-01T09:00:07;1.10;99.90
31809;DHT22;18379;48.208;-1.518;2023-03-01T09:05:09;1.20;99.90
31809;DHT22;18379;48.208;-1.518;2023-03-01T09:10:10;1.40;99.90
31809;DHT22;18379;48.208;-1.518;2023-03-01T09:15:11;1.60;99.90
31809;DHT22;18379;48.208;-1.518;2023-03-01T09:20:12;1.70;99.90
31809;DHT22;18379;48.208;-1.518;2023-03-01T09:25:13;2.00;99.90
31809;DHT22;18379;48.208;-1.518;2023-03-01T09:30:14;2.00;99.90
31809;DHT22;18379;48.208;-1.518;2023-03-01T09:35:15;2.10;99.90
31809;DHT22;18379;48.208;-1.518;2023-03-01T09:40:24;2.30;99.90
31809;DHT22;18379;48.208;-1.518;2023-03-01T09:45:33;2.40;99.90
31809;DHT22;18379;48.208;-1.518;2023-03-01T09:50:41;2.60;99.90
31809;DHT22;18379;48.208;-1.518;2023-03-01T09:55:55;2.60;99.90
31809;DHT22;18379;48.208;-1.518;2023-03-01T10:01:06;2.70;99.90
31809;DHT22;18379;48.208;-1.518;2023-03-01T10:06:13;2.80;99.90
31809;DHT22;18379;48.208;-1.518;2023-03-01T10:11:24;3.00;99.90
31809;DHT22;18379;48.208;-1.518;2023-03-01T10:16:43;3.10;99.90
31809;DHT22;18379;48.208;-1.518;2023-03-01T10:21:46;3.30;99.90
31809;DHT22;18379;48.208;-1.518;2023-03-01T10:26:55;3.50;99.90
31809;DHT22;18379;48.208;-1.518;2023-03-01T10:31:57;3.50;99.90
31809;DHT22;18379;48.208;-1.518;2023-03-01T10:37:19;3.60;99.90
31809;DHT22;18379;48.208;-1.518;2023-03-01T10:42:33;3.80;99.90
31809;DHT22;18379;48.208;-1.518;2023-03-01T10:47:34;4.10;99.90
31809;DHT22;18379;48.208;-1.518;2023-03-01T10:52:37;4.40;99.90
31809;DHT22;18379;48.208;-1.518;2023-03-01T10:57:40;4.60;99.90
31809;DHT22;18379;48.208;-1.518;2023-03-01T11:02:41;4.50;99.90
31809;DHT22;18379;48.208;-1.518;2023-03-01T11:07:54;4.60;99.90
31809;DHT22;18379;48.208;-1.518;2023-03-01T11:13:17;4.70;99.90
31809;DHT22;18379;48.208;-1.518;2023-03-01T11:18:21;5.00;99.90
31809;DHT22;18379;48.208;-1.518;2023-03-01T11:23:23;5.10;99.90
31809;DHT22;18379;48.208;-1.518;2023-03-01T11:28:25;5.30;99.90
31809;DHT22;18379;48.208;-1.518;2023-03-01T11:33:42;5.30;99.90
31809;DHT22;18379;48.208;-1.518;2023-03-01T11:38:44;5.50;99.90
31809;DHT22;18379;48.208;-1.518;2023-03-01T11:44:03;5.60;99.90
31809;DHT22;18379;48.208;-1.518;2023-03-01T12:00:53;5.80;99.90
31809;DHT22;18379;48.208;-1.518;2023-03-01T12:06:34;5.90;99.90
31809;DHT22;18379;48.208;-1.518;2023-03-01T12:38:59;6.50;99.90
31809;DHT22;18379;48.208;-1.518;2023-03-01T12:49:26;6.90;99.90
31809;DHT22;18379;48.208;-1.518;2023-03-01T12:54:31;6.90;99.90
31809;DHT22;18379;48.208;-1.518;2023-03-01T13:10:46;7.10;99.90
31809;DHT22;18379;48.208;-1.518;2023-03-01T13:15:49;7.10;99.90
31809;DHT22;18379;48.208;-1.518;2023-03-01T13:20:55;7.50;99.90
31809;DHT22;18379;48.208;-1.518;2023-03-01T13:26:12;7.70;99.90
31809;DHT22;18379;48.208;-1.518;2023-03-01T13:46:45;7.90;99.90
31809;DHT22;18379;48.208;-1.518;2023-03-01T13:51:47;8.40;99.90
31809;DHT22;18379;48.208;-1.518;2023-03-01T13:56:48;8.70;99.90
31809;DHT22;18379;48.208;-1.518;2023-03-01T14:01:53;9.20;99.90
31809;DHT22;18379;48.208;-1.518;2023-03-01T14:18:07;9.80;99.90
31809;DHT22;18379;48.208;-1.518;2023-03-01T14:23:14;9.20;99.90
31809;DHT22;18379;48.208;-1.518;2023-03-01T14:28:28;9.50;99.90
31809;DHT22;18379;48.208;-1.518;2023-03-01T14:33:34;9.50;99.90
31809;DHT22;18379;48.208;-1.518;2023-03-01T14:38:44;9.40;99.90
31809;DHT22;18379;48.208;-1.518;2023-03-01T14:43:49;9.10;99.90
31809;DHT22;18379;48.208;-1.518;2023-03-01T14:48:57;9.00;99.90
31809;DHT22;18379;48.208;-1.518;2023-03-01T14:54:02;9.20;99.90
31809;DHT22;18379;48.208;-1.518;2023-03-01T14:59:03;9.10;99.90
31809;DHT22;18379;48.208;-1.518;2023-03-01T15:04:05;9.50;99.90
31809;DHT22;18379;48.208;-1.518;2023-03-01T15:09:14;9.80;99.90
31809;DHT22;18379;48.208;-1.518;2023-03-01T15:14:40;10.20;99.90
31809;DHT22;18379;48.208;-1.518;2023-03-01T15:19:41;9.70;99.90
31809;DHT22;18379;48.208;-1.518;2023-03-01T15:24:47;9.70;99.90
31809;DHT22;18379;48.208;-1.518;2023-03-01T15:29:50;10.00;99.90
31809;DHT22;18379;48.208;-1.518;2023-03-01T15:34:53;9.90;99.90
31809;DHT22;18379;48.208;-1.518;2023-03-01T15:39:56;10.30;99.90
31809;DHT22;18379;48.208;-1.518;2023-03-01T15:50:37;10.20;99.90
31809;DHT22;18379;48.208;-1.518;2023-03-01T15:55:41;10.40;99.90
31809;DHT22;18379;48.208;-1.518;2023-03-01T16:00:43;10.10;99.90
31809;DHT22;18379;48.208;-1.518;2023-03-01T16:05:44;10.20;99.90
31809;DHT22;18379;48.208;-1.518;2023-03-01T16:10:45;9.60;99.90
31809;DHT22;18379;48.208;-1.518;2023-03-01T16:15:46;9.70;99.90
31809;DHT22;18379;48.208;-1.518;2023-03-01T16:20:47;9.30;99.90
31809;DHT22;18379;48.208;-1.518;2023-03-01T16:25:48;9.30;99.90
31809;DHT22;18379;48.208;-1.518;2023-03-01T16:30:49;9.40;99.90
31809;DHT22;18379;48.208;-1.518;2023-03-01T16:35:51;9.50;99.90
31809;DHT22;18379;48.208;-1.518;2023-03-01T16:40:52;9.00;99.90
31809;DHT22;18379;48.208;-1.518;2023-03-01T16:45:53;9.10;99.90
31809;DHT22;18379;48.208;-1.518;2023-03-01T16:50:59;9.00;99.90
31809;DHT22;18379;48.208;-1.518;2023-03-01T16:56:02;8.70;99.90
31809;DHT22;18379;48.208;-1.518;2023-03-01T17:01:11;8.10;99.90
31809;DHT22;18379;48.208;-1.518;2023-03-01T17:06:16;8.20;99.90
31809;DHT22;18379;48.208;-1.518;2023-03-01T17:11:18;7.80;99.90
31809;DHT22;18379;48.208;-1.518;2023-03-01T17:16:20;7.40;99.90
31809;DHT22;18379;48.208;-1.518;2023-03-01T17:21:21;6.90;99.90
31809;DHT22;18379;48.208;-1.518;2023-03-01T17:26:22;6.40;99.90
31809;DHT22;18379;48.208;-1.518;2023-03-01T17:31:23;6.40;99.90
31809;DHT22;18379;48.208;-1.518;2023-03-01T17:36:24;6.20;99.90
31809;DHT22;18379;48.208;-1.518;2023-03-01T17:41:25;6.10;99.90
31809;DHT22;18379;48.208;-1.518;2023-03-01T17:46:26;5.80;99.90
31809;DHT22;18379;48.208;-1.518;2023-03-01T17:51:27;5.60;99.90
31809;DHT22;18379;48.208;-1.518;2023-03-01T17:56:28;5.50;99.90
31809;DHT22;18379;48.208;-1.518;2023-03-01T18:01:29;5.40;99.90
31809;DHT22;18379;48.208;-1.518;2023-03-01T18:06:30;5.30;99.90
31809;DHT22;18379;48.208;-1.518;2023-03-01T18:11:33;5.30;99.90
31809;DHT22;18379;48.208;-1.518;2023-03-01T18:16:35;5.10;99.90
31809;DHT22;18379;48.208;-1.518;2023-03-01T18:21:36;5.00;99.90
31809;DHT22;18379;48.208;-1.518;2023-03-01T18:26:37;5.00;99.90
31809;DHT22;18379;48.208;-1.518;2023-03-01T18:31:38;4.90;99.90
31809;DHT22;18379;48.208;-1.518;2023-03-01T18:36:42;4.90;99.90
31809;DHT22;18379;48.208;-1.518;2023-03-01T18:41:43;4.90;99.90
31809;DHT22;18379;48.208;-1.518;2023-03-01T18:46:47;4.90;99.90
31809;DHT22;18379;48.208;-1.518;2023-03-01T18:51:48;4.80;99.90
31809;DHT22;18379;48.208;-1.518;2023-03-01T18:56:50;4.90;99.90
31809;DHT22;18379;48.208;-1.518;2023-03-01T19:01:51;4.80;99.90
31809;DHT22;18379;48.208;-1.518;2023-03-01T19:06:53;4.80;99.90
31809;DHT22;18379;48.208;-1.518;2023-03-01T19:11:54;4.70;99.90
31809;DHT22;18379;48.208;-1.518;2023-03-01T19:17:02;4.70;99.90
31809;DHT22;18379;48.208;-1.518;2023-03-01T19:22:04;4.60;99.90
31809;DHT22;18379;48.208;-1.518;2023-03-01T19:27:11;4.60;99.90
31809;DHT22;18379;48.208;-1.518;2023-03-01T19:32:12;4.60;99.90
31809;DHT22;18379;48.208;-1.518;2023-03-01T19:37:13;4.50;99.90
31809;DHT22;18379;48.208;-1.518;2023-03-01T19:42:14;4.50;99.90
31809;DHT22;18379;48.208;-1.518;2023-03-01T19:47:15;4.60;99.90
31809;DHT22;18379;48.208;-1.518;2023-03-01T19:52:18;4.50;99.90
31809;DHT22;18379;48.208;-1.518;2023-03-01T19:57:19;4.40;99.90
31809;DHT22;18379;48.208;-1.518;2023-03-01T20:02:20;4.40;99.90
31809;DHT22;18379;48.208;-1.518;2023-03-01T20:07:21;4.40;99.90
31809;DHT22;18379;48.208;-1.518;2023-03-01T20:12:21;4.30;99.90
31809;DHT22;18379;48.208;-1.518;2023-03-01T20:17:22;4.30;99.90
31809;DHT22;18379;48.208;-1.518;2023-03-01T20:22:23;4.20;99.90
31809;DHT22;18379;48.208;-1.518;2023-03-01T20:27:24;4.20;99.90
31809;DHT22;18379;48.208;-1.518;2023-03-01T20:32:25;4.20;99.90
31809;DHT22;18379;48.208;-1.518;2023-03-01T20:37:26;4.10;99.90
31809;DHT22;18379;48.208;-1.518;2023-03-01T20:42:27;4.10;99.90
31809;DHT22;18379;48.208;-1.518;2023-03-01T20:47:28;4.00;99.90
31809;DHT22;18379;48.208;-1.518;2023-03-01T20:52:30;3.90;99.90
31809;DHT22;18379;48.208;-1.518;2023-03-01T20:57:31;3.80;99.90
31809;DHT22;18379;48.208;-1.518;2023-03-01T21:02:32;3.70;99.90
31809;DHT22;18379;48.208;-1.518;2023-03-01T21:07:32;3.70;99.90
31809;DHT22;18379;48.208;-1.518;2023-03-01T21:12:33;3.60;99.90
31809;DHT22;18379;48.208;-1.518;2023-03-01T21:17:34;3.60;99.90
31809;DHT22;18379;48.208;-1.518;2023-03-01T21:22:35;3.60;99.90
31809;DHT22;18379;48.208;-1.518;2023-03-01T21:27:37;3.40;99.90
31809;DHT22;18379;48.208;-1.518;2023-03-01T21:32:38;3.30;99.90
31809;DHT22;18379;48.208;-1.518;2023-03-01T21:37:38;3.20;99.90
31809;DHT22;18379;48.208;-1.518;2023-03-01T21:42:40;3.30;99.90
31809;DHT22;18379;48.208;-1.518;2023-03-01T21:47:43;3.20;99.90
31809;DHT22;18379;48.208;-1.518;2023-03-01T21:52:44;3.20;99.90
31809;DHT22;18379;48.208;-1.518;2023-03-01T21:57:45;3.10;99.90
31809;DHT22;18379;48.208;-1.518;2023-03-01T22:02:46;3.00;99.90
31809;DHT22;18379;48.208;-1.518;2023-03-01T22:07:47;3.00;99.90
31809;DHT22;18379;48.208;-1.518;2023-03-01T22:12:49;3.00;99.90
31809;DHT22;18379;48.208;-1.518;2023-03-01T22:17:50;2.90;99.90
31809;DHT22;18379;48.208;-1.518;2023-03-01T22:22:51;2.80;99.90
31809;DHT22;18379;48.208;-1.518;2023-03-01T22:27:52;2.80;99.90
31809;DHT22;18379;48.208;-1.518;2023-03-01T22:32:53;2.80;99.90
31809;DHT22;18379;48.208;-1.518;2023-03-01T22:37:53;2.70;99.90
31809;DHT22;18379;48.208;-1.518;2023-03-01T22:42:54;2.70;99.90
31809;DHT22;18379;48.208;-1.518;2023-03-01T22:47:58;2.60;99.90
31809;DHT22;18379;48.208;-1.518;2023-03-01T22:52:59;2.60;99.90
31809;DHT22;18379;48.208;-1.518;2023-03-01T22:58:02;2.50;99.90
31809;DHT22;18379;48.208;-1.518;2023-03-01T23:03:03;2.40;99.90
31809;DHT22;18379;48.208;-1.518;2023-03-01T23:08:06;2.30;99.90
31809;DHT22;18379;48.208;-1.518;2023-03-01T23:13:17;2.30;99.90
31809;DHT22;18379;48.208;-1.518;2023-03-01T23:18:23;2.20;99.90
31809;DHT22;18379;48.208;-1.518;2023-03-01T23:23:32;2.20;99.90
31809;DHT22;18379;48.208;-1.518;2023-03-01T23:28:40;2.10;99.90
31809;DHT22;18379;48.208;-1.518;2023-03-01T23:33:43;2.00;99.90
31809;DHT22;18379;48.208;-1.518;2023-03-01T23:38:49;2.00;99.90
31809;DHT22;18379;48.208;-1.518;2023-03-01T23:43:52;1.90;99.90
31809;DHT22;18379;48.208;-1.518;2023-03-01T23:49:01;1.90;99.90
31809;DHT22;18379;48.208;-1.518;2023-03-01T23:54:03;1.90;99.90
31809;DHT22;18379;48.208;-1.518;2023-03-01T23:59:13;1.80;99.90
